• Join FlightAware (Why Join?)
  • Login
  • US Flag 
12:30AM EDT


 

Airport Tracker/Info


-or-


 

Live Flight TrackerFlight Track Log ✈ WAV261 ✈ 18-Apr-2014 ✈ PFYU - PAFA / FAI

Flight Track Log - Related Links

Times and Time Zones

All times are in EDT time to prevent confusion due to time zone crossing. See the WAV261 flight status page for this flight to view local times or setup timezone preferences in your user account.

Time Position Orientation Groundspeed Altitude Reporting Facility
EDT Latitude Longitude Course Direction KTS MPH feet Rate Location/Type
10:42PM 66.4833 -145.4000 210° Southwest 120 138 4,500  Level Anchorage Center
10:43PM 66.4500 -145.4500 211° Southwest 150 173 5,400 840 Climbing Anchorage Center
10:44PM 66.4167 -145.5000 211° Southwest 110 127 6,200 840 Climbing Anchorage Center
10:45PM 66.3833 -145.5500 211° Southwest 150 173 7,100 900 Climbing Anchorage Center
10:46PM 66.3500 -145.6000 211° Southwest 150 173 8,000 420 Climbing Anchorage Center
10:47PM 66.3422 -145.5804 210° Southwest  Level FlightAware Approximate
10:47PM 66.3167 -145.6500 211° Southwest 160 184 8,000  Level Anchorage Center
10:48PM 66.2833 -145.7167 219° Southwest 180 207 8,000  Level Anchorage Center
10:49PM 66.2333 -145.7833 208° Southwest 170 196 8,000  Level Anchorage Center
10:50PM 66.2000 -145.8500 219° Southwest 180 207 8,000  Level Anchorage Center
10:51PM 66.1500 -145.9167 208° Southwest 170 196 8,000  Level Anchorage Center
10:52PM 66.1167 -145.9833 219° Southwest 170 196 8,000  Level Anchorage Center
10:53PM 66.0667 -146.0333 202° Southwest 170 196 8,000  Level Anchorage Center
10:54PM 66.0333 -146.1000 219° Southwest 170 196 8,000  Level Anchorage Center
10:55PM 65.9833 -146.1667 208° Southwest 180 207 8,000  Level Anchorage Center
10:56PM 65.9500 -146.2333 219° Southwest 170 196 8,000  Level Anchorage Center
10:57PM 65.9000 -146.2833 202° Southwest 170 196 8,000  Level Anchorage Center
10:58PM 65.8667 -146.3500 219° Southwest 170 196 8,000  Level Anchorage Center
10:59PM 65.8167 -146.4000 202° Southwest 170 196 8,000  Level Anchorage Center
11:00PM 65.7833 -146.4667 219° Southwest 170 196 8,000  Level Anchorage Center
11:01PM 65.7333 -146.5333 209° Southwest 170 196 8,000  Level Anchorage Center
11:02PM 65.7000 -146.5833 212° Southwest 170 196 8,000  Level Anchorage Center
11:03PM 65.6667 -146.6500 220° Southwest 170 196 8,000  Level Anchorage Center
11:04PM 65.6167 -146.7000 202° Southwest 160 184 8,000  Level Anchorage Center
11:05PM 65.5833 -146.7667 220° Southwest 170 196 8,000  Level Anchorage Center
11:06PM 65.5333 -146.8167 203° Southwest 170 196 8,000  Level Anchorage Center
11:07PM 65.5000 -146.8833 220° Southwest 170 196 8,000  Level Anchorage Center
11:08PM 65.4500 -146.9333 203° Southwest 180 207 8,000  Level Anchorage Center
11:10PM 65.3931 -147.0171 212° Southwest  Level FlightAware Approximate
11:17PM 65.1334 -147.3969 209° Southwest  Level FlightAware Approximate
11:18PM 65.0948 -147.4470 209° Southwest  Level FlightAware Approximate
11:19PM 65.0564 -147.4977 211° Southwest  Level FlightAware Approximate
11:20PM 65.0185 -147.5506 210° Southwest  Level FlightAware Approximate
11:21PM 64.9805 -147.6033 210° Southwest  Level FlightAware Approximate
11:22PM 64.9426 -147.6558 210° Southwest  Level FlightAware Approximate
11:23PM 64.9046 -147.7083 210° Southwest  Level FlightAware Approximate
11:24PM 64.8666 -147.7605 210° Southwest  Level FlightAware Approximate
11:25PM 64.8285 -147.8121 210° Southwest  Level FlightAware Approximate
11:26PM 64.8151 -147.8564 210° Southwest  Level Estimated
11:27PM 64.8151 -147.8564 170° South  Level Estimated
11:28PM 64.8151 -147.8564 210° Southwest  Level Estimated
11:29PM 64.8151 -147.8564 170° South  Level Estimated
11:30PM 64.8151 -147.8564 210° Southwest  Level Estimated
11:31PM 64.8151 -147.8564 170° South  Level Estimated
11:32PM 64.8151 -147.8564 210° Southwest  Level Estimated
11:33PM 64.8151 -147.8564 170° South  Level Estimated
11:34PM 64.8151 -147.8564 210° Southwest  Level Estimated
11:35PM 64.8151 -147.8564 170° South  Level Estimated
11:36PM 64.8151 -147.8564 210° Southwest  Level Estimated
11:37PM 64.8151 -147.8564 170° South  Level Estimated
11:38PM 64.8151 -147.8564 210° Southwest  Level Estimated
11:39PM 64.8151 -147.8564 170° South  Level Estimated
11:40PM 64.8151 -147.8564 210° Southwest  Level Estimated
11:41PM 64.8151 -147.8564 170° South  Level Estimated
11:42PM 64.8151 -147.8564 210° Southwest  Level Estimated
11:43PM 64.8151 -147.8564 170° South  Level Estimated